Time;durP1;ratioP1;P1;durP2;ratioP2;P2;SDS_P1;SDS_P2;PMS_P1;PMS_P2;Temp;Humidity;BMP_temperature;BMP_pressure;BME280_temperature;BME280_humidity;BME280_pressure;Samples;Min_cycle;Max_cycle;Signal;HPM_P1;HPM_P2
2023/12/22 00:01:33;;;;;;;9.80;7.95;;;;;;;;;;5005960;28;20034;-60
2023/12/22 00:04:00;;;;;;;9.80;7.10;;;;;;;;;;5011175;28;20022;-60
2023/12/22 00:06:26;;;;;;;7.30;6.50;;;;;;;;;;5011341;28;20041;-60
2023/12/22 00:08:51;;;;;;;8.30;7.20;;;;;;;;;;5010309;28;20037;-60
2023/12/22 00:17:25;;;;;;;8.40;7.20;;;;;;;;;;5004588;28;20053;-60
2023/12/22 00:19:51;;;;;;;7.93;7.03;;;;;;;;;;5010347;28;20105;-60
2023/12/22 00:22:17;;;;;;;7.57;6.80;;;;;;;;;;5025499;28;20117;-60
2023/12/22 00:24:43;;;;;;;9.70;6.75;;;;;;;;;;5008933;28;20049;-60
2023/12/22 00:27:09;;;;;;;9.55;6.97;;;;;;;;;;5011457;28;20058;-60
2023/12/22 00:29:37;;;;;;;7.88;7.07;;;;;;;;;;5015383;28;20384;-60
2023/12/22 00:32:03;;;;;;;7.95;6.50;;;;;;;;;;5011057;28;20030;-60
2023/12/22 00:34:29;;;;;;;9.70;7.93;;;;;;;;;;5023332;28;20376;-60
2023/12/22 00:36:55;;;;;;;8.88;7.95;;;;;;;;;;5014512;28;20029;-60
2023/12/22 00:39:22;;;;;;;10.18;7.45;;;;;;;;;;5013367;28;20109;-60
2023/12/22 00:41:48;;;;;;;11.10;7.25;;;;;;;;;;5014190;28;20464;-60
2023/12/22 00:44:14;;;;;;;9.77;7.57;;;;;;;;;;5013743;28;20026;-60
2023/12/22 00:46:40;;;;;;;8.85;7.70;;;;;;;;;;5013703;28;20030;-60
2023/12/22 00:49:06;;;;;;;12.23;7.45;;;;;;;;;;5012768;28;20030;-60
2023/12/22 00:51:32;;;;;;;12.30;8.20;;;;;;;;;;5013265;28;20121;-60
2023/12/22 00:53:58;;;;;;;9.35;6.88;;;;;;;;;;5023585;28;20022;-60
2023/12/22 00:56:24;;;;;;;10.00;8.55;;;;;;;;;;5019555;28;20179;-61
2023/12/22 00:58:50;;;;;;;10.13;8.30;;;;;;;;;;5012936;28;20025;-60
2023/12/22 01:01:16;;;;;;;12.45;8.93;;;;;;;;;;5013700;28;20822;-60
2023/12/22 01:03:42;;;;;;;12.68;9.43;;;;;;;;;;5014582;28;20029;-60
2023/12/22 01:06:08;;;;;;;12.38;9.63;;;;;;;;;;5012982;28;20356;-60
2023/12/22 01:08:33;;;;;;;13.38;10.30;;;;;;;;;;5013310;28;20038;-60
2023/12/22 01:11:00;;;;;;;12.45;10.05;;;;;;;;;;5003296;28;20036;-60
2023/12/22 01:13:26;;;;;;;12.13;9.90;;;;;;;;;;5014047;28;20030;-59
2023/12/22 01:15:51;;;;;;;13.05;9.73;;;;;;;;;;5018452;28;20071;-60
2023/12/22 01:18:17;;;;;;;15.13;10.73;;;;;;;;;;5013619;28;20384;-59
2023/12/22 01:20:43;;;;;;;13.98;10.45;;;;;;;;;;5012974;28;20076;-60
2023/12/22 01:23:09;;;;;;;13.25;11.07;;;;;;;;;;5018202;28;20030;-59
2023/12/22 01:25:35;;;;;;;13.07;11.60;;;;;;;;;;5017680;28;20562;-60
2023/12/22 01:28:01;;;;;;;13.88;11.55;;;;;;;;;;5011934;28;20034;-60
2023/12/22 01:33:31;;;;;;;15.10;11.50;;;;;;;;;;5010776;28;20052;-60
2023/12/22 01:35:57;;;;;;;15.35;11.10;;;;;;;;;;5005478;28;20452;-60
2023/12/22 01:38:32;;;;;;;13.45;10.98;;;;;;;;;;5015544;28;20030;-60
2023/12/22 01:40:58;;;;;;;15.18;12.40;;;;;;;;;;5012387;28;20030;-60
2023/12/22 01:43:24;;;;;;;13.95;11.20;;;;;;;;;;5011744;28;20030;-60
2023/12/22 01:45:53;;;;;;;14.20;10.73;;;;;;;;;;5009689;28;20026;-60
2023/12/22 01:48:19;;;;;;;15.45;10.85;;;;;;;;;;5011519;28;20506;-60
2023/12/22 01:50:45;;;;;;;16.80;11.80;;;;;;;;;;5012698;28;20494;-60
2023/12/22 01:53:11;;;;;;;15.38;10.40;;;;;;;;;;5011216;28;20033;-60
2023/12/22 01:55:37;;;;;;;16.17;11.25;;;;;;;;;;5013524;28;20029;-61
2023/12/22 01:58:03;;;;;;;14.57;11.32;;;;;;;;;;5020699;28;20053;-60
2023/12/22 02:00:29;;;;;;;17.05;10.88;;;;;;;;;;5011966;28;20128;-60
2023/12/22 02:02:55;;;;;;;15.88;11.98;;;;;;;;;;5011065;28;20104;-60
2023/12/22 02:05:21;;;;;;;16.05;12.25;;;;;;;;;;5010476;28;20476;-60
2023/12/22 02:07:47;;;;;;;14.23;11.65;;;;;;;;;;5012195;28;20033;-60
2023/12/22 02:10:13;;;;;;;14.20;11.65;;;;;;;;;;5017249;28;20056;-60
2023/12/22 02:12:39;;;;;;;15.93;11.52;;;;;;;;;;5008312;28;20065;-60
2023/12/22 02:15:05;;;;;;;14.88;12.38;;;;;;;;;;5008286;28;20113;-60
2023/12/22 02:17:45;;;;;;;13.32;11.65;;;;;;;;;;5009799;28;20026;-60
2023/12/22 02:20:11;;;;;;;14.13;11.07;;;;;;;;;;5012024;28;20021;-60
2023/12/22 02:32:15;;;;;;;15.30;11.32;;;;;;;;;;4975815;28;20113;-59
2023/12/22 02:34:42;;;;;;;15.18;11.48;;;;;;;;;;5005892;28;20038;-60
2023/12/22 02:37:09;;;;;;;15.10;11.48;;;;;;;;;;5011848;28;20488;-59
2023/12/22 02:39:36;;;;;;;13.90;10.80;;;;;;;;;;5008466;28;20219;-60
2023/12/22 02:42:03;;;;;;;16.33;11.93;;;;;;;;;;5009839;28;20395;-60
2023/12/22 02:44:29;;;;;;;16.25;12.27;;;;;;;;;;5011826;28;20506;-60
2023/12/22 02:46:55;;;;;;;14.30;10.95;;;;;;;;;;5011983;28;20468;-60
2023/12/22 02:49:21;;;;;;;15.40;12.20;;;;;;;;;;5011679;28;20535;-60
2023/12/22 02:51:47;;;;;;;15.73;12.48;;;;;;;;;;5011006;28;20129;-60
2023/12/22 02:54:13;;;;;;;14.85;12.35;;;;;;;;;;5012382;28;20475;-60
2023/12/22 02:56:39;;;;;;;17.38;13.02;;;;;;;;;;5012331;28;20026;-60
2023/12/22 02:59:05;;;;;;;15.57;12.45;;;;;;;;;;5012318;28;20037;-60
2023/12/22 03:01:31;;;;;;;14.35;11.38;;;;;;;;;;5012293;28;20172;-60
2023/12/22 03:03:57;;;;;;;14.07;12.07;;;;;;;;;;5017457;28;20040;-60
2023/12/22 03:06:23;;;;;;;19.05;11.55;;;;;;;;;;5011867;28;20025;-60
2023/12/22 03:08:49;;;;;;;18.08;12.05;;;;;;;;;;5012739;28;20056;-60
2023/12/22 03:11:15;;;;;;;20.30;12.93;;;;;;;;;;5010983;28;20062;-60
2023/12/22 03:13:41;;;;;;;17.15;12.10;;;;;;;;;;5018974;28;20488;-60
2023/12/22 03:16:10;;;;;;;15.63;11.77;;;;;;;;;;5011307;28;20112;-61
2023/12/22 03:18:38;;;;;;;13.85;10.77;;;;;;;;;;5012610;28;20050;-60
2023/12/22 03:21:05;;;;;;;13.73;11.40;;;;;;;;;;5011173;28;20053;-60
2023/12/22 03:23:31;;;;;;;13.48;10.98;;;;;;;;;;5009787;28;20065;-60
2023/12/22 03:25:56;;;;;;;15.30;10.82;;;;;;;;;;5017603;28;20110;-60
2023/12/22 03:28:22;;;;;;;15.13;10.90;;;;;;;;;;5027564;28;20033;-60
2023/12/22 03:30:48;;;;;;;13.15;10.55;;;;;;;;;;5013148;28;20084;-61
2023/12/22 03:33:14;;;;;;;15.48;11.38;;;;;;;;;;5011094;28;20056;-61
2023/12/22 03:38:44;;;;;;;12.27;10.10;;;;;;;;;;5001645;28;20033;-60
2023/12/22 03:41:11;;;;;;;12.15;9.90;;;;;;;;;;5012222;28;20030;-61
2023/12/22 03:43:37;;;;;;;11.02;9.65;;;;;;;;;;5021545;28;20036;-61
2023/12/22 03:46:03;;;;;;;13.25;9.93;;;;;;;;;;5009877;28;20464;-60
2023/12/22 03:48:29;;;;;;;13.63;9.80;;;;;;;;;;5009392;28;20033;-61
2023/12/22 03:50:55;;;;;;;12.27;10.00;;;;;;;;;;5010913;28;20045;-60
2023/12/22 03:53:21;;;;;;;12.38;9.60;;;;;;;;;;5010382;28;20025;-60
2023/12/22 03:55:46;;;;;;;13.77;9.00;;;;;;;;;;5011283;28;20391;-60
2023/12/22 03:58:12;;;;;;;11.80;9.20;;;;;;;;;;5009257;28;20030;-60
2023/12/22 04:00:39;;;;;;;11.63;9.63;;;;;;;;;;5011139;28;20135;-60
2023/12/22 04:03:05;;;;;;;12.70;10.40;;;;;;;;;;5012861;28;20018;-61
2023/12/22 04:05:31;;;;;;;12.48;9.32;;;;;;;;;;5014135;28;20099;-60
2023/12/22 04:07:57;;;;;;;12.80;9.88;;;;;;;;;;5014515;28;20128;-60
2023/12/22 04:10:23;;;;;;;11.43;8.30;;;;;;;;;;5013452;28;20089;-60
2023/12/22 04:12:49;;;;;;;11.23;8.90;;;;;;;;;;5015423;28;20432;-60
2023/12/22 04:15:15;;;;;;;11.82;8.25;;;;;;;;;;5013542;28;20105;-61
2023/12/22 04:17:41;;;;;;;9.52;8.43;;;;;;;;;;5029394;28;20030;-60
2023/12/22 04:20:07;;;;;;;12.68;8.82;;;;;;;;;;5013692;28;20469;-60
2023/12/22 04:22:33;;;;;;;10.50;8.65;;;;;;;;;;5014332;28;20030;-60
2023/12/22 04:25:00;;;;;;;11.73;8.30;;;;;;;;;;5013004;28;20113;-61
2023/12/22 04:27:26;;;;;;;8.95;7.25;;;;;;;;;;5014547;28;20036;-61
2023/12/22 04:29:51;;;;;;;8.55;6.63;;;;;;;;;;5014676;28;20033;-60
2023/12/22 04:32:17;;;;;;;6.82;5.47;;;;;;;;;;5021078;28;20046;-60
2023/12/22 04:34:43;;;;;;;9.30;5.40;;;;;;;;;;5011222;28;20037;-60
2023/12/22 04:37:10;;;;;;;5.65;4.50;;;;;;;;;;5014442;28;20124;-61
2023/12/22 04:39:36;;;;;;;10.55;5.18;;;;;;;;;;5006831;28;20030;-61
2023/12/22 04:42:01;;;;;;;4.32;3.47;;;;;;;;;;5011542;28;20455;-61
2023/12/22 04:44:27;;;;;;;7.63;4.57;;;;;;;;;;5013677;28;20036;-60
2023/12/22 04:46:53;;;;;;;7.13;4.88;;;;;;;;;;5014094;28;20526;-60
2023/12/22 04:49:19;;;;;;;7.25;4.22;;;;;;;;;;5014516;28;20060;-60
2023/12/22 04:51:45;;;;;;;6.47;3.92;;;;;;;;;;5014538;28;20446;-61
2023/12/22 04:54:11;;;;;;;4.18;3.22;;;;;;;;;;5013293;28;20096;-61
2023/12/22 04:56:37;;;;;;;4.78;3.40;;;;;;;;;;5022354;28;20414;-61
2023/12/22 04:59:03;;;;;;;7.25;3.47;;;;;;;;;;5013195;28;20076;-61
2023/12/22 05:01:29;;;;;;;6.85;4.28;;;;;;;;;;5013989;28;20038;-60
2023/12/22 05:03:55;;;;;;;4.90;4.07;;;;;;;;;;5012516;28;20539;-60
2023/12/22 05:06:21;;;;;;;4.63;3.88;;;;;;;;;;5011588;28;20091;-60
2023/12/22 05:08:47;;;;;;;4.63;3.90;;;;;;;;;;5025279;28;20349;-60
2023/12/22 05:11:13;;;;;;;5.60;4.20;;;;;;;;;;5007124;28;20030;-60
2023/12/22 05:13:40;;;;;;;6.07;4.32;;;;;;;;;;5011522;28;20453;-60
2023/12/22 05:16:06;;;;;;;5.05;3.55;;;;;;;;;;5013011;28;20022;-60
2023/12/22 05:18:32;;;;;;;7.28;3.50;;;;;;;;;;5013765;28;20034;-60
2023/12/22 05:20:58;;;;;;;4.20;3.17;;;;;;;;;;5013779;28;20034;-60
2023/12/22 05:23:24;;;;;;;5.03;4.43;;;;;;;;;;5012672;28;20057;-60
2023/12/22 05:25:51;;;;;;;4.95;4.20;;;;;;;;;;5012115;28;20022;-60
2023/12/22 05:28:17;;;;;;;8.02;4.03;;;;;;;;;;5013623;28;20029;-61
2023/12/22 05:30:43;;;;;;;4.32;3.38;;;;;;;;;;5013733;28;20427;-60
2023/12/22 05:33:09;;;;;;;3.83;3.30;;;;;;;;;;5013882;28;20045;-60
2023/12/22 05:35:35;;;;;;;5.07;3.28;;;;;;;;;;5023279;28;20100;-60
2023/12/22 05:38:01;;;;;;;4.72;2.90;;;;;;;;;;5010519;28;20030;-61
2023/12/22 05:40:27;;;;;;;8.48;3.33;;;;;;;;;;5011880;28;20054;-60
2023/12/22 05:42:53;;;;;;;4.38;2.80;;;;;;;;;;5013445;28;20073;-60
2023/12/22 05:45:19;;;;;;;3.17;2.80;;;;;;;;;;5011246;28;20057;-60
2023/12/22 05:47:45;;;;;;;5.13;3.08;;;;;;;;;;5012959;28;20425;-60
2023/12/22 05:50:12;;;;;;;3.45;2.75;;;;;;;;;;5013796;28;20033;-60
2023/12/22 05:52:38;;;;;;;4.47;3.15;;;;;;;;;;5013739;28;20037;-60
2023/12/22 05:55:04;;;;;;;3.72;2.78;;;;;;;;;;5018612;28;20148;-60
2023/12/22 05:57:30;;;;;;;3.88;2.92;;;;;;;;;;5017152;28;20446;-60
2023/12/22 05:59:56;;;;;;;3.30;2.70;;;;;;;;;;5013449;28;20026;-60
2023/12/22 06:02:22;;;;;;;2.83;2.60;;;;;;;;;;5012708;28;20380;-60
2023/12/22 06:04:48;;;;;;;6.43;3.85;;;;;;;;;;5011840;28;20113;-60
2023/12/22 06:07:14;;;;;;;5.20;3.80;;;;;;;;;;5011845;28;20049;-60
2023/12/22 06:09:40;;;;;;;8.40;4.60;;;;;;;;;;5012373;28;20097;-60
2023/12/22 06:12:06;;;;;;;5.93;4.07;;;;;;;;;;5020988;28;20125;-60
2023/12/22 06:14:32;;;;;;;9.23;4.68;;;;;;;;;;5011853;28;20026;-60
2023/12/22 06:16:58;;;;;;;6.55;4.03;;;;;;;;;;5008757;28;20080;-60
2023/12/22 06:19:28;;;;;;;4.68;3.60;;;;;;;;;;5012785;28;20017;-59
2023/12/22 06:21:54;;;;;;;8.38;3.72;;;;;;;;;;5010907;28;20040;-61
2023/12/22 06:24:20;;;;;;;4.43;3.53;;;;;;;;;;5011979;28;20067;-61
2023/12/22 06:26:47;;;;;;;4.40;3.42;;;;;;;;;;5016845;28;20044;-60
2023/12/22 06:29:13;;;;;;;4.63;3.60;;;;;;;;;;5012770;28;20033;-61
2023/12/22 06:31:39;;;;;;;4.85;3.53;;;;;;;;;;5011476;28;20042;-60
2023/12/22 06:34:05;;;;;;;5.78;3.78;;;;;;;;;;5008801;28;20037;-61
2023/12/22 06:36:30;;;;;;;4.32;3.83;;;;;;;;;;5011491;28;20030;-61
2023/12/22 06:38:57;;;;;;;6.93;3.58;;;;;;;;;;5010428;28;20030;-60
2023/12/22 06:41:27;;;;;;;5.55;3.67;;;;;;;;;;5011246;28;20041;-61
2023/12/22 06:43:53;;;;;;;5.25;4.05;;;;;;;;;;5011489;28;20025;-60
2023/12/22 06:46:20;;;;;;;7.20;3.65;;;;;;;;;;5010252;28;20135;-61
2023/12/22 06:48:46;;;;;;;6.57;3.72;;;;;;;;;;5009125;28;20474;-60
2023/12/22 06:51:30;;;;;;;5.55;3.55;;;;;;;;;;5040838;28;20042;-61
2023/12/22 06:53:56;;;;;;;4.15;3.63;;;;;;;;;;5007181;28;20034;-61
2023/12/22 06:56:23;;;;;;;5.68;3.60;;;;;;;;;;5010765;28;20026;-61
2023/12/22 06:59:11;;;;;;;4.55;2.97;;;;;;;;;;5011536;28;20112;-61
2023/12/22 07:01:37;;;;;;;4.10;2.60;;;;;;;;;;5010904;28;20026;-61
2023/12/22 07:04:04;;;;;;;2.85;2.58;;;;;;;;;;5012249;28;20483;-60
2023/12/22 07:06:31;;;;;;;5.70;2.42;;;;;;;;;;5007410;28;20041;-60
2023/12/22 07:09:23;;;;;;;3.35;2.00;;;;;;;;;;5038415;28;20560;-61
2023/12/22 07:11:50;;;;;;;4.10;1.23;;;;;;;;;;5008930;28;20050;-61
2023/12/22 07:14:16;;;;;;;5.13;1.30;;;;;;;;;;5008807;28;20144;-61
2023/12/22 07:16:42;;;;;;;3.08;1.60;;;;;;;;;;5002580;28;20033;-61
2023/12/22 07:19:08;;;;;;;5.13;1.30;;;;;;;;;;5001616;28;20110;-61
2023/12/22 07:21:34;;;;;;;1.80;0.90;;;;;;;;;;5010397;28;20029;-61
2023/12/22 07:24:01;;;;;;;4.97;0.90;;;;;;;;;;5009549;28;20398;-60
2023/12/22 07:26:27;;;;;;;2.08;0.60;;;;;;;;;;5009200;28;20034;-61
2023/12/22 07:28:53;;;;;;;2.42;0.82;;;;;;;;;;5009338;28;20022;-61
2023/12/22 07:31:19;;;;;;;4.50;0.60;;;;;;;;;;5009887;28;20030;-60
2023/12/22 07:33:45;;;;;;;9.05;0.80;;;;;;;;;;5001844;28;20087;-60
2023/12/22 07:36:11;;;;;;;1.25;0.60;;;;;;;;;;5010717;28;20041;-60
2023/12/22 07:38:41;;;;;;;2.10;0.70;;;;;;;;;;5010291;28;20435;-59
2023/12/22 07:41:08;;;;;;;4.40;0.47;;;;;;;;;;5010025;28;20632;-60
2023/12/22 07:43:34;;;;;;;2.50;0.35;;;;;;;;;;5017136;28;20022;-60
2023/12/22 07:46:00;;;;;;;4.38;0.80;;;;;;;;;;5009757;28;20109;-60
2023/12/22 07:48:26;;;;;;;3.95;0.90;;;;;;;;;;5009671;28;20453;-60
2023/12/22 07:50:52;;;;;;;4.18;0.50;;;;;;;;;;5010189;28;20121;-60
2023/12/22 07:53:18;;;;;;;6.28;0.63;;;;;;;;;;5008598;28;20034;-60
2023/12/22 07:55:44;;;;;;;3.35;0.60;;;;;;;;;;5008466;28;20030;-60
2023/12/22 07:58:10;;;;;;;3.03;0.50;;;;;;;;;;5009946;28;20037;-59
2023/12/22 08:00:36;;;;;;;5.82;0.50;;;;;;;;;;5006583;28;20030;-56
2023/12/22 08:03:03;;;;;;;2.72;0.38;;;;;;;;;;5008737;28;20360;-48
2023/12/22 08:05:29;;;;;;;1.45;0.40;;;;;;;;;;5009270;28;20025;-51
2023/12/22 08:07:55;;;;;;;3.10;0.70;;;;;;;;;;5009722;28;20057;-58
2023/12/22 08:10:21;;;;;;;1.98;0.43;;;;;;;;;;5040083;28;20069;-59
2023/12/22 08:12:47;;;;;;;2.85;0.70;;;;;;;;;;5010047;28;20470;-60
2023/12/22 08:15:13;;;;;;;1.83;0.60;;;;;;;;;;5009482;28;20037;-60
2023/12/22 08:17:49;;;;;;;2.90;0.80;;;;;;;;;;5008692;28;20034;-60
2023/12/22 08:20:21;;;;;;;1.80;0.30;;;;;;;;;;5009684;28;20391;-48
2023/12/22 08:22:48;;;;;;;1.52;0.45;;;;;;;;;;5008763;28;20075;-59
2023/12/22 08:25:14;;;;;;;2.38;0.45;;;;;;;;;;5008649;28;20033;-58
2023/12/22 08:27:40;;;;;;;1.48;0.35;;;;;;;;;;5009540;28;20121;-45
2023/12/22 08:30:07;;;;;;;1.95;0.45;;;;;;;;;;5007926;28;20041;-60
2023/12/22 08:32:33;;;;;;;4.28;0.68;;;;;;;;;;5008802;28;20053;-61
2023/12/22 08:34:59;;;;;;;1.23;0.43;;;;;;;;;;5008775;28;20041;-61
2023/12/22 08:37:24;;;;;;;3.65;0.40;;;;;;;;;;5006697;28;20034;-51
2023/12/22 08:39:51;;;;;;;8.88;0.60;;;;;;;;;;5008223;28;20042;-54
2023/12/22 08:42:17;;;;;;;4.03;0.32;;;;;;;;;;5009519;28;20409;-56
2023/12/22 08:44:43;;;;;;;3.20;0.50;;;;;;;;;;5008144;28;20026;-61
2023/12/22 08:47:09;;;;;;;4.95;0.60;;;;;;;;;;5008558;28;20025;-56
2023/12/22 08:49:35;;;;;;;0.57;0.20;;;;;;;;;;5012331;28;20057;-54
2023/12/22 08:52:03;;;;;;;2.38;0.45;;;;;;;;;;5011468;28;20133;-62
2023/12/22 08:54:29;;;;;;;2.58;0.45;;;;;;;;;;5011673;28;20056;-62
2023/12/22 08:56:55;;;;;;;0.75;0.43;;;;;;;;;;5009152;28;20052;-57
2023/12/22 08:59:21;;;;;;;3.08;0.60;;;;;;;;;;5013077;28;20111;-58
2023/12/22 09:01:47;;;;;;;2.35;0.70;;;;;;;;;;5010251;28;20047;-62
2023/12/22 09:04:14;;;;;;;2.30;0.75;;;;;;;;;;5013320;28;20472;-65
2023/12/22 09:06:41;;;;;;;1.45;0.55;;;;;;;;;;5011250;28;20030;-68
2023/12/22 09:09:10;;;;;;;0.50;0.20;;;;;;;;;;5012964;28;20026;-68
2023/12/22 09:11:36;;;;;;;2.40;0.63;;;;;;;;;;5006909;28;20047;-66
2023/12/22 09:14:02;;;;;;;1.20;0.45;;;;;;;;;;5011796;28;20045;-63
2023/12/22 09:16:28;;;;;;;2.10;0.30;;;;;;;;;;5012139;28;20402;-61
2023/12/22 09:18:54;;;;;;;3.83;1.52;;;;;;;;;;5012318;28;20030;-60
2023/12/22 09:21:20;;;;;;;2.50;0.98;;;;;;;;;;5011663;28;20030;-62
2023/12/22 09:23:47;;;;;;;2.83;0.50;;;;;;;;;;5011670;28;20033;-61
2023/12/22 09:26:13;;;;;;;4.40;0.60;;;;;;;;;;5010558;28;20068;-61
2023/12/22 09:28:40;;;;;;;5.82;0.85;;;;;;;;;;5007823;28;20571;-59
2023/12/22 09:31:07;;;;;;;1.00;0.30;;;;;;;;;;5004314;28;20125;-61
2023/12/22 09:33:33;;;;;;;0.45;0.15;;;;;;;;;;5011958;28;20046;-60
2023/12/22 09:35:59;;;;;;;3.92;0.15;;;;;;;;;;5008882;28;20041;-60
2023/12/22 09:38:25;;;;;;;1.50;0.63;;;;;;;;;;5011631;28;20034;-58
2023/12/22 09:40:52;;;;;;;1.25;0.22;;;;;;;;;;5008855;28;20495;-57
2023/12/22 09:43:19;;;;;;;1.65;0.30;;;;;;;;;;5009493;28;20121;-61
2023/12/22 09:45:49;;;;;;;0.10;0.10;;;;;;;;;;5009238;28;20411;-61
2023/12/22 09:48:17;;;;;;;1.33;0.20;;;;;;;;;;5009863;28;20104;-56
2023/12/22 09:50:46;;;;;;;0.50;0.08;;;;;;;;;;5008250;28;20619;-57
2023/12/22 09:53:15;;;;;;;0.10;0.00;;;;;;;;;;5010622;28;20030;-56
2023/12/22 09:55:43;;;;;;;2.85;0.50;;;;;;;;;;5011310;28;20037;-61
2023/12/22 09:58:10;;;;;;;3.35;0.63;;;;;;;;;;5012113;28;20064;-63
2023/12/22 10:00:37;;;;;;;2.35;0.80;;;;;;;;;;5009625;28;20022;-61
2023/12/22 10:03:06;;;;;;;2.17;0.93;;;;;;;;;;5009276;28;20045;-62
2023/12/22 10:05:32;;;;;;;2.80;0.65;;;;;;;;;;5008735;28;20132;-60
2023/12/22 10:08:00;;;;;;;0.82;0.40;;;;;;;;;;5010260;28;20034;-54
2023/12/22 10:10:29;;;;;;;1.55;0.47;;;;;;;;;;5010905;28;20100;-57
2023/12/22 10:12:55;;;;;;;0.80;0.57;;;;;;;;;;5011709;28;20072;-60
2023/12/22 10:15:23;;;;;;;2.40;0.50;;;;;;;;;;5010317;28;20037;-60
2023/12/22 10:17:50;;;;;;;1.58;0.63;;;;;;;;;;5008526;28;20106;-62
2023/12/22 10:20:16;;;;;;;3.47;0.60;;;;;;;;;;5006787;28;20495;-62
2023/12/22 10:22:42;;;;;;;0.55;0.25;;;;;;;;;;5007118;28;20068;-62
2023/12/22 10:25:09;;;;;;;1.45;0.30;;;;;;;;;;5008594;28;20041;-60
2023/12/22 10:27:36;;;;;;;1.63;0.38;;;;;;;;;;5007297;28;20037;-61
2023/12/22 10:30:04;;;;;;;2.20;0.52;;;;;;;;;;5008372;28;20072;-60
2023/12/22 10:32:30;;;;;;;1.55;0.30;;;;;;;;;;5007838;28;20050;-60
2023/12/22 10:34:57;;;;;;;0.57;0.30;;;;;;;;;;5009656;28;20033;-60
2023/12/22 10:37:23;;;;;;;1.42;0.17;;;;;;;;;;5007806;28;20030;-60
2023/12/22 10:39:53;;;;;;;1.77;0.20;;;;;;;;;;5008595;28;20030;-58
2023/12/22 10:42:19;;;;;;;2.53;0.28;;;;;;;;;;5009528;28;20505;-59
2023/12/22 10:44:45;;;;;;;0.52;0.20;;;;;;;;;;5008176;28;20025;-54
2023/12/22 10:47:11;;;;;;;1.30;0.30;;;;;;;;;;5008166;28;20117;-57
2023/12/22 10:49:38;;;;;;;2.05;0.30;;;;;;;;;;5000158;28;20084;-60
2023/12/22 10:52:04;;;;;;;1.45;0.32;;;;;;;;;;5007156;28;20099;-62
2023/12/22 10:54:30;;;;;;;1.02;0.10;;;;;;;;;;5007169;28;20058;-64
2023/12/22 10:57:00;;;;;;;0.30;0.30;;;;;;;;;;5007449;28;20029;-58
2023/12/22 10:59:28;;;;;;;2.15;0.30;;;;;;;;;;5008704;28;20025;-61
2023/12/22 11:01:55;;;;;;;2.50;0.47;;;;;;;;;;5008595;28;20036;-60
2023/12/22 11:04:22;;;;;;;1.40;0.30;;;;;;;;;;5006252;28;20045;-53
2023/12/22 11:06:50;;;;;;;0.38;0.30;;;;;;;;;;5004772;28;20481;-57
2023/12/22 11:09:17;;;;;;;2.10;0.22;;;;;;;;;;5008413;28;20030;-65
2023/12/22 11:11:43;;;;;;;1.08;0.28;;;;;;;;;;5006601;28;20041;-77
2023/12/22 11:14:09;;;;;;;1.98;0.70;;;;;;;;;;5003441;28;20456;-79
2023/12/22 11:16:36;;;;;;;1.55;0.30;;;;;;;;;;5009764;28;20092;-56
2023/12/22 11:19:03;;;;;;;1.65;0.50;;;;;;;;;;5010385;28;20030;-62
2023/12/22 11:21:29;;;;;;;1.42;0.68;;;;;;;;;;5007551;28;20034;-66
2023/12/22 11:23:57;;;;;;;0.52;0.28;;;;;;;;;;5009636;28;20029;-75
2023/12/22 11:26:24;;;;;;;1.17;0.20;;;;;;;;;;5008904;28;20080;-75
2023/12/22 11:28:50;;;;;;;1.88;0.17;;;;;;;;;;5008805;28;20057;-75
2023/12/22 11:31:17;;;;;;;1.23;0.40;;;;;;;;;;5008403;28;20111;-70
2023/12/22 11:33:47;;;;;;;1.58;0.30;;;;;;;;;;5006857;28;20054;-71
2023/12/22 11:36:14;;;;;;;0.85;0.30;;;;;;;;;;5007137;28;20030;-71
2023/12/22 11:38:44;;;;;;;1.55;0.13;;;;;;;;;;5007869;28;20547;-71
2023/12/22 11:41:12;;;;;;;1.85;0.52;;;;;;;;;;5008058;28;20077;-71
2023/12/22 11:43:39;;;;;;;0.88;0.40;;;;;;;;;;5007936;28;20038;-63
2023/12/22 11:46:05;;;;;;;0.60;0.30;;;;;;;;;;5006914;28;20121;-69
2023/12/22 11:48:32;;;;;;;0.50;0.40;;;;;;;;;;5009404;28;20480;-75
2023/12/22 11:50:58;;;;;;;2.28;0.32;;;;;;;;;;5010203;28;20055;-76
2023/12/22 11:53:25;;;;;;;1.02;0.77;;;;;;;;;;5009296;28;20021;-75
2023/12/22 11:55:57;;;;;;;1.85;0.35;;;;;;;;;;5010423;28;20037;-75
2023/12/22 11:58:42;;;;;;;2.88;0.70;;;;;;;;;;5009998;28;20494;-75
2023/12/22 12:01:12;;;;;;;2.63;0.22;;;;;;;;;;5011627;28;20029;-76
2023/12/22 12:03:53;;;;;;;0.45;0.20;;;;;;;;;;5011709;28;20041;-76
2023/12/22 12:06:25;;;;;;;1.38;0.10;;;;;;;;;;5010222;28;20025;-76
2023/12/22 12:09:17;;;;;;;0.50;0.20;;;;;;;;;;5005751;28;20022;-76
2023/12/22 12:12:03;;;;;;;0.75;0.35;;;;;;;;;;5006806;28;20095;-75
2023/12/22 12:14:32;;;;;;;1.30;0.55;;;;;;;;;;5003666;28;20062;-75
2023/12/22 12:17:08;;;;;;;2.63;0.70;;;;;;;;;;5010239;28;20458;-75
2023/12/22 12:19:41;;;;;;;0.50;0.30;;;;;;;;;;5003090;28;20112;-75
2023/12/22 12:22:08;;;;;;;3.08;0.30;;;;;;;;;;5011415;28;20030;-75
2023/12/22 12:24:34;;;;;;;3.50;0.20;;;;;;;;;;5013051;28;20026;-75
2023/12/22 12:27:00;;;;;;;1.92;0.28;;;;;;;;;;5015369;28;20436;-74
2023/12/22 12:29:28;;;;;;;1.50;0.10;;;;;;;;;;5014891;28;20037;-75
2023/12/22 12:32:02;;;;;;;0.55;0.15;;;;;;;;;;5014882;28;20062;-75
2023/12/22 12:34:29;;;;;;;1.17;0.30;;;;;;;;;;5014596;28;20383;-75
2023/12/22 12:36:55;;;;;;;0.47;0.30;;;;;;;;;;5015130;28;20025;-76
2023/12/22 12:39:24;;;;;;;4.30;0.30;;;;;;;;;;5014612;28;20030;-75
2023/12/22 12:41:54;;;;;;;0.55;0.22;;;;;;;;;;5014599;28;20017;-75
2023/12/22 12:44:20;;;;;;;0.40;0.20;;;;;;;;;;5014625;28;20032;-75
2023/12/22 12:46:46;;;;;;;2.15;0.30;;;;;;;;;;5014571;28;20029;-77
2023/12/22 12:49:14;;;;;;;1.55;0.20;;;;;;;;;;5013107;28;20087;-75
2023/12/22 12:51:42;;;;;;;0.28;0.13;;;;;;;;;;5012825;28;20030;-75
2023/12/22 12:54:09;;;;;;;1.23;0.30;;;;;;;;;;5014163;28;20053;-75
2023/12/22 12:56:43;;;;;;;0.22;0.20;;;;;;;;;;5014229;28;20487;-75
2023/12/22 12:59:09;;;;;;;0.50;0.40;;;;;;;;;;5014476;28;20049;-75
2023/12/22 13:01:39;;;;;;;0.50;0.30;;;;;;;;;;5014443;28;20104;-75
2023/12/22 13:04:06;;;;;;;0.68;0.28;;;;;;;;;;5014334;28;20125;-76
2023/12/22 13:06:32;;;;;;;2.00;0.20;;;;;;;;;;5014150;28;20026;-75
2023/12/22 13:08:58;;;;;;;0.63;0.20;;;;;;;;;;5014492;28;20024;-76
2023/12/22 13:11:26;;;;;;;0.73;0.38;;;;;;;;;;5014337;28;20449;-76
2023/12/22 13:13:53;;;;;;;0.40;0.20;;;;;;;;;;5012876;28;20014;-75
2023/12/22 13:16:22;;;;;;;6.50;0.30;;;;;;;;;;5014206;28;20037;-75
2023/12/22 13:18:49;;;;;;;0.30;0.30;;;;;;;;;;5013932;28;20021;-75
2023/12/22 13:21:15;;;;;;;2.75;0.40;;;;;;;;;;5014075;28;20452;-76
2023/12/22 13:23:41;;;;;;;1.80;0.70;;;;;;;;;;5013183;28;20516;-75
2023/12/22 13:26:18;;;;;;;0.85;0.40;;;;;;;;;;5013766;28;20029;-75
2023/12/22 13:28:44;;;;;;;1.67;0.20;;;;;;;;;;5013523;28;20037;-76
2023/12/22 13:40:52;;;;;;;1.15;0.35;;;;;;;;;;4995549;28;20081;-61
2023/12/22 13:43:18;;;;;;;0.50;0.20;;;;;;;;;;4996957;28;20044;-61
2023/12/22 13:45:44;;;;;;;1.23;0.13;;;;;;;;;;5002147;28;20480;-61
2023/12/22 13:48:10;;;;;;;0.65;0.22;;;;;;;;;;5013428;28;20029;-60
2023/12/22 13:50:37;;;;;;;1.38;0.30;;;;;;;;;;5013443;28;20111;-60
2023/12/22 13:53:09;;;;;;;0.30;0.10;;;;;;;;;;5013027;28;20026;-60
2023/12/22 13:55:37;;;;;;;0.50;0.40;;;;;;;;;;5013343;28;20460;-60
2023/12/22 13:58:06;;;;;;;0.30;0.28;;;;;;;;;;5011723;28;20022;-60
2023/12/22 14:00:32;;;;;;;2.92;0.30;;;;;;;;;;5013221;28;20025;-60
2023/12/22 14:02:58;;;;;;;0.57;0.15;;;;;;;;;;5013140;28;20509;-60
2023/12/22 14:05:24;;;;;;;2.95;0.50;;;;;;;;;;5013173;28;20022;-60
2023/12/22 14:07:50;;;;;;;3.70;0.20;;;;;;;;;;5013066;28;20452;-60
2023/12/22 14:10:16;;;;;;;0.30;0.30;;;;;;;;;;5013035;28;20025;-60
2023/12/22 14:12:43;;;;;;;0.35;0.15;;;;;;;;;;5012914;28;20034;-60
2023/12/22 14:15:13;;;;;;;1.35;0.20;;;;;;;;;;5011611;28;20160;-60
2023/12/22 14:17:39;;;;;;;0.52;0.20;;;;;;;;;;5012976;28;20030;-60
2023/12/22 14:20:06;;;;;;;1.58;0.32;;;;;;;;;;5012962;28;20017;-60
2023/12/22 14:22:33;;;;;;;0.32;0.03;;;;;;;;;;5011441;28;20026;-60
2023/12/22 14:24:59;;;;;;;0.77;0.10;;;;;;;;;;5012789;28;20022;-60
2023/12/22 14:27:26;;;;;;;2.10;0.10;;;;;;;;;;5013141;28;20021;-60
2023/12/22 14:29:52;;;;;;;0.43;0.10;;;;;;;;;;5012705;28;20014;-60
2023/12/22 14:32:19;;;;;;;0.10;0.10;;;;;;;;;;5012327;28;20418;-59
2023/12/22 14:37:48;;;;;;;5.10;0.30;;;;;;;;;;4997746;28;20030;-60
2023/12/22 14:40:14;;;;;;;1.10;0.20;;;;;;;;;;5004606;28;20396;-60
2023/12/22 14:42:40;;;;;;;0.20;0.20;;;;;;;;;;4998925;28;20030;-60
2023/12/22 14:45:06;;;;;;;0.32;0.20;;;;;;;;;;5012333;28;20512;-60
2023/12/22 14:47:32;;;;;;;1.90;0.38;;;;;;;;;;5012411;28;20052;-61
2023/12/22 14:50:03;;;;;;;0.28;0.20;;;;;;;;;;5012341;28;20037;-60
2023/12/22 14:52:29;;;;;;;1.83;0.90;;;;;;;;;;5008193;28;20125;-60
2023/12/22 14:54:55;;;;;;;2.65;1.05;;;;;;;;;;5010853;28;20053;-61
2023/12/22 14:57:22;;;;;;;2.13;1.33;;;;;;;;;;5012202;28;20030;-60
2023/12/22 14:59:48;;;;;;;1.58;1.23;;;;;;;;;;5012051;28;20101;-61
2023/12/22 15:02:14;;;;;;;3.17;0.65;;;;;;;;;;5012466;28;20180;-60
2023/12/22 15:04:49;;;;;;;1.83;0.50;;;;;;;;;;5011922;28;20147;-60
2023/12/22 15:07:19;;;;;;;0.90;0.40;;;;;;;;;;5012138;28;20083;-60
2023/12/22 15:09:45;;;;;;;1.65;0.47;;;;;;;;;;5011881;28;20101;-60
2023/12/22 15:12:14;;;;;;;2.03;0.30;;;;;;;;;;5011980;28;20022;-60